Airfield :
LOGIN :

Register | Disclaimer

   EN    FR    IT 

 










Legend :    VFR   Marginal VFR   IFR   Intensive IFR   Very Intensive IFR
Visi :
Ceiling :
>= 8 km
>= 3000ft
5 to 8 km
1000 to 3000 ft
1500m to 5 km
500 to 1000 ft
800 to 1500m
200 to 500 ft
< 800m
< 200 ft
Symbols :   Thunderstorms  Fog  Heavy snow  Heavy precipitations  Wind > 20 kt
SIGMETs :     Misc.  Thunderstorms  Icing  Turbulence  Mountain Waves  Volcanic Ashes







- Airport Elevation : 2096 ft
- IATA code : AUR
- Download approach charts


LFLW - Aurillac

CURRENT METAR :
  • 261230Z AUTO 15008KT 130V190 CAVOK 26/13 Q1016 NOSIG

EXPIRED METARs :
  • 261200Z AUTO 15009KT 110V190 CAVOK 26/14 Q1016 NOSIG
  • 261130Z AUTO 14008KT 110V180 CAVOK 26/14 Q1016 NOSIG
  • 261100Z AUTO 16009KT 120V190 CAVOK 26/15 Q1016 NOSIG
  • 261030Z AUTO 14008KT 110V180 CAVOK 25/14 Q1017 NOSIG
  • 261000Z AUTO 13009KT 100V170 CAVOK 24/12 Q1017 NOSIG

TAF TAF LFLW
Valid from the 26 at 12:00 until the 26 at 21:00 UTC


261100Z 2612/2621 16009KT CAVOK
No reported NOTAMs for that airfield.



MET'MAP, your aeronautical weather chart ! - Copyright ORBIFLY December 2007 - Disclaimer

ORBIFLY MET'MAP TEAM :

Programming & Development : Alexandra Zaïnal
Concept & Development : Baudouin d'Aumeries
Co-Development & Prog : Marc-Olivier Méhu
Technical & hardware support : Manuel Goepfert

Contact : metmap@orbifly.com




SOURCES & CREDITS :

   NOAA